sensor_id;sensor_type;location;lat;lon;timestamp;P1;durP1;ratioP1;P2;durP2;ratioP2
23624;SDS011;11989;47.872;12.014;2023-03-05T00:00:46;38.15;;;21.67;;
23624;SDS011;11989;47.872;12.014;2023-03-05T00:03:12;40.80;;;22.05;;
23624;SDS011;11989;47.872;12.014;2023-03-05T00:05:38;46.55;;;23.38;;
23624;SDS011;11989;47.872;12.014;2023-03-05T00:08:04;42.35;;;22.60;;
23624;SDS011;11989;47.872;12.014;2023-03-05T00:10:30;40.97;;;21.98;;
23624;SDS011;11989;47.872;12.014;2023-03-05T00:12:56;38.83;;;21.02;;
23624;SDS011;11989;47.872;12.014;2023-03-05T00:15:22;42.05;;;22.65;;
23624;SDS011;11989;47.872;12.014;2023-03-05T00:17:48;39.72;;;23.25;;
23624;SDS011;11989;47.872;12.014;2023-03-05T00:20:14;41.88;;;22.20;;
23624;SDS011;11989;47.872;12.014;2023-03-05T00:22:40;45.20;;;20.90;;
23624;SDS011;11989;47.872;12.014;2023-03-05T00:25:06;39.97;;;20.83;;
23624;SDS011;11989;47.872;12.014;2023-03-05T00:27:33;38.47;;;20.55;;
23624;SDS011;11989;47.872;12.014;2023-03-05T00:29:59;38.88;;;22.13;;
23624;SDS011;11989;47.872;12.014;2023-03-05T00:32:25;41.10;;;22.08;;
23624;SDS011;11989;47.872;12.014;2023-03-05T00:34:51;41.05;;;21.45;;
23624;SDS011;11989;47.872;12.014;2023-03-05T00:37:17;41.65;;;23.63;;
23624;SDS011;11989;47.872;12.014;2023-03-05T00:39:43;39.63;;;21.75;;
23624;SDS011;11989;47.872;12.014;2023-03-05T00:42:09;41.20;;;22.30;;
23624;SDS011;11989;47.872;12.014;2023-03-05T00:44:35;39.33;;;21.92;;
23624;SDS011;11989;47.872;12.014;2023-03-05T00:47:01;42.30;;;22.58;;
23624;SDS011;11989;47.872;12.014;2023-03-05T00:49:28;42.13;;;22.27;;
23624;SDS011;11989;47.872;12.014;2023-03-05T00:51:54;40.30;;;22.30;;
23624;SDS011;11989;47.872;12.014;2023-03-05T00:54:21;41.10;;;22.00;;
23624;SDS011;11989;47.872;12.014;2023-03-05T00:56:47;39.15;;;22.70;;
23624;SDS011;11989;47.872;12.014;2023-03-05T00:59:13;43.17;;;24.58;;
23624;SDS011;11989;47.872;12.014;2023-03-05T01:01:39;43.13;;;24.00;;
23624;SDS011;11989;47.872;12.014;2023-03-05T01:04:05;39.63;;;22.90;;
23624;SDS011;11989;47.872;12.014;2023-03-05T01:06:31;38.55;;;21.80;;
23624;SDS011;11989;47.872;12.014;2023-03-05T01:08:57;38.72;;;22.92;;
23624;SDS011;11989;47.872;12.014;2023-03-05T01:11:23;47.20;;;23.20;;
23624;SDS011;11989;47.872;12.014;2023-03-05T01:13:50;44.05;;;21.83;;
23624;SDS011;11989;47.872;12.014;2023-03-05T01:16:16;44.08;;;23.13;;
23624;SDS011;11989;47.872;12.014;2023-03-05T01:18:42;39.80;;;23.48;;
23624;SDS011;11989;47.872;12.014;2023-03-05T01:21:08;42.17;;;24.40;;
23624;SDS011;11989;47.872;12.014;2023-03-05T01:23:34;41.70;;;23.38;;
23624;SDS011;11989;47.872;12.014;2023-03-05T01:26:01;40.75;;;22.13;;
23624;SDS011;11989;47.872;12.014;2023-03-05T01:28:28;40.13;;;22.58;;
23624;SDS011;11989;47.872;12.014;2023-03-05T01:30:54;45.17;;;24.45;;
23624;SDS011;11989;47.872;12.014;2023-03-05T01:33:20;43.75;;;23.42;;
23624;SDS011;11989;47.872;12.014;2023-03-05T01:35:46;40.63;;;22.48;;
23624;SDS011;11989;47.872;12.014;2023-03-05T01:38:14;45.33;;;23.08;;
23624;SDS011;11989;47.872;12.014;2023-03-05T01:40:41;42.72;;;23.63;;
23624;SDS011;11989;47.872;12.014;2023-03-05T01:45:37;38.80;;;22.88;;
23624;SDS011;11989;47.872;12.014;2023-03-05T01:48:03;42.95;;;23.92;;
23624;SDS011;11989;47.872;12.014;2023-03-05T01:50:29;44.38;;;21.98;;
23624;SDS011;11989;47.872;12.014;2023-03-05T01:52:57;43.75;;;25.42;;
23624;SDS011;11989;47.872;12.014;2023-03-05T01:55:24;45.95;;;24.42;;
23624;SDS011;11989;47.872;12.014;2023-03-05T01:58:07;46.15;;;23.20;;
23624;SDS011;11989;47.872;12.014;2023-03-05T02:00:36;45.38;;;23.65;;
23624;SDS011;11989;47.872;12.014;2023-03-05T02:03:05;37.58;;;21.85;;
23624;SDS011;11989;47.872;12.014;2023-03-05T02:05:33;41.67;;;23.67;;
23624;SDS011;11989;47.872;12.014;2023-03-05T02:08:00;43.38;;;22.40;;
23624;SDS011;11989;47.872;12.014;2023-03-05T02:10:34;41.72;;;22.58;;
23624;SDS011;11989;47.872;12.014;2023-03-05T02:13:02;47.13;;;23.25;;
23624;SDS011;11989;47.872;12.014;2023-03-05T02:15:29;45.50;;;22.45;;
23624;SDS011;11989;47.872;12.014;2023-03-05T02:17:55;43.65;;;23.10;;
23624;SDS011;11989;47.872;12.014;2023-03-05T02:20:25;39.03;;;22.23;;
23624;SDS011;11989;47.872;12.014;2023-03-05T02:22:52;43.25;;;22.92;;
23624;SDS011;11989;47.872;12.014;2023-03-05T02:25:19;39.17;;;23.02;;
23624;SDS011;11989;47.872;12.014;2023-03-05T02:27:56;43.10;;;22.38;;
23624;SDS011;11989;47.872;12.014;2023-03-05T02:30:24;42.72;;;22.55;;
23624;SDS011;11989;47.872;12.014;2023-03-05T02:32:50;46.80;;;22.95;;
23624;SDS011;11989;47.872;12.014;2023-03-05T02:35:17;46.42;;;24.65;;
23624;SDS011;11989;47.872;12.014;2023-03-05T02:37:43;46.78;;;23.67;;
23624;SDS011;11989;47.872;12.014;2023-03-05T02:40:12;41.38;;;22.20;;
23624;SDS011;11989;47.872;12.014;2023-03-05T02:42:38;49.53;;;23.08;;
23624;SDS011;11989;47.872;12.014;2023-03-05T02:45:04;46.47;;;23.77;;
23624;SDS011;11989;47.872;12.014;2023-03-05T02:47:31;45.35;;;23.13;;
23624;SDS011;11989;47.872;12.014;2023-03-05T02:49:57;49.97;;;24.77;;
23624;SDS011;11989;47.872;12.014;2023-03-05T02:52:23;44.45;;;22.73;;
23624;SDS011;11989;47.872;12.014;2023-03-05T02:54:50;45.75;;;23.67;;
23624;SDS011;11989;47.872;12.014;2023-03-05T02:57:16;44.17;;;23.35;;
23624;SDS011;11989;47.872;12.014;2023-03-05T02:59:42;43.55;;;24.50;;
23624;SDS011;11989;47.872;12.014;2023-03-05T03:02:08;50.88;;;24.02;;
23624;SDS011;11989;47.872;12.014;2023-03-05T03:04:34;47.97;;;23.40;;
23624;SDS011;11989;47.872;12.014;2023-03-05T03:07:00;42.83;;;23.45;;
23624;SDS011;11989;47.872;12.014;2023-03-05T03:09:26;44.63;;;23.65;;
23624;SDS011;11989;47.872;12.014;2023-03-05T03:11:52;46.85;;;24.25;;
23624;SDS011;11989;47.872;12.014;2023-03-05T03:14:19;45.75;;;23.13;;
23624;SDS011;11989;47.872;12.014;2023-03-05T03:16:45;47.28;;;23.83;;
23624;SDS011;11989;47.872;12.014;2023-03-05T03:19:11;42.47;;;22.42;;
23624;SDS011;11989;47.872;12.014;2023-03-05T03:21:37;46.72;;;23.13;;
23624;SDS011;11989;47.872;12.014;2023-03-05T03:24:03;46.53;;;22.88;;
23624;SDS011;11989;47.872;12.014;2023-03-05T03:26:29;50.78;;;24.42;;
23624;SDS011;11989;47.872;12.014;2023-03-05T03:28:56;47.30;;;22.65;;
23624;SDS011;11989;47.872;12.014;2023-03-05T03:31:22;50.22;;;24.88;;
23624;SDS011;11989;47.872;12.014;2023-03-05T03:33:48;45.17;;;23.13;;
23624;SDS011;11989;47.872;12.014;2023-03-05T03:36:14;47.85;;;22.88;;
23624;SDS011;11989;47.872;12.014;2023-03-05T03:38:40;50.17;;;23.88;;
23624;SDS011;11989;47.872;12.014;2023-03-05T03:41:07;43.22;;;23.42;;
23624;SDS011;11989;47.872;12.014;2023-03-05T03:43:34;45.45;;;22.90;;
23624;SDS011;11989;47.872;12.014;2023-03-05T03:46:02;47.65;;;23.95;;
23624;SDS011;11989;47.872;12.014;2023-03-05T03:48:28;49.78;;;25.02;;
23624;SDS011;11989;47.872;12.014;2023-03-05T03:50:54;46.00;;;23.65;;
23624;SDS011;11989;47.872;12.014;2023-03-05T03:53:20;43.28;;;22.08;;
23624;SDS011;11989;47.872;12.014;2023-03-05T03:55:46;51.33;;;24.23;;
23624;SDS011;11989;47.872;12.014;2023-03-05T03:58:12;45.10;;;23.20;;
23624;SDS011;11989;47.872;12.014;2023-03-05T04:00:39;47.15;;;22.45;;
23624;SDS011;11989;47.872;12.014;2023-03-05T04:03:05;46.42;;;22.60;;
23624;SDS011;11989;47.872;12.014;2023-03-05T04:05:31;45.10;;;23.75;;
23624;SDS011;11989;47.872;12.014;2023-03-05T04:07:57;44.10;;;24.17;;
23624;SDS011;11989;47.872;12.014;2023-03-05T04:10:25;46.60;;;22.67;;
23624;SDS011;11989;47.872;12.014;2023-03-05T04:12:51;43.50;;;22.95;;
23624;SDS011;11989;47.872;12.014;2023-03-05T04:15:17;45.35;;;23.10;;
23624;SDS011;11989;47.872;12.014;2023-03-05T04:17:43;45.72;;;22.23;;
23624;SDS011;11989;47.872;12.014;2023-03-05T04:20:09;43.53;;;23.60;;
23624;SDS011;11989;47.872;12.014;2023-03-05T04:22:36;44.17;;;22.75;;
23624;SDS011;11989;47.872;12.014;2023-03-05T04:25:03;48.65;;;23.90;;
23624;SDS011;11989;47.872;12.014;2023-03-05T04:27:32;46.53;;;25.25;;
23624;SDS011;11989;47.872;12.014;2023-03-05T04:29:59;47.75;;;23.35;;
23624;SDS011;11989;47.872;12.014;2023-03-05T04:32:25;41.90;;;23.85;;
23624;SDS011;11989;47.872;12.014;2023-03-05T04:34:53;48.38;;;24.02;;
23624;SDS011;11989;47.872;12.014;2023-03-05T04:37:19;49.22;;;25.00;;
23624;SDS011;11989;47.872;12.014;2023-03-05T04:39:45;44.58;;;25.20;;
23624;SDS011;11989;47.872;12.014;2023-03-05T04:42:11;48.17;;;23.17;;
23624;SDS011;11989;47.872;12.014;2023-03-05T04:44:37;42.30;;;22.80;;
23624;SDS011;11989;47.872;12.014;2023-03-05T04:47:03;43.85;;;25.05;;
23624;SDS011;11989;47.872;12.014;2023-03-05T04:49:30;43.38;;;24.33;;
23624;SDS011;11989;47.872;12.014;2023-03-05T04:51:56;47.63;;;24.08;;
23624;SDS011;11989;47.872;12.014;2023-03-05T04:54:22;45.38;;;24.52;;
23624;SDS011;11989;47.872;12.014;2023-03-05T04:56:48;44.67;;;22.85;;
23624;SDS011;11989;47.872;12.014;2023-03-05T04:59:14;39.20;;;22.13;;
23624;SDS011;11989;47.872;12.014;2023-03-05T05:01:40;50.75;;;26.27;;
23624;SDS011;11989;47.872;12.014;2023-03-05T05:04:07;43.83;;;23.77;;
23624;SDS011;11989;47.872;12.014;2023-03-05T05:06:33;44.85;;;24.02;;
23624;SDS011;11989;47.872;12.014;2023-03-05T05:08:59;47.00;;;23.52;;
23624;SDS011;11989;47.872;12.014;2023-03-05T05:11:25;43.80;;;23.90;;
23624;SDS011;11989;47.872;12.014;2023-03-05T05:13:51;43.58;;;23.50;;
23624;SDS011;11989;47.872;12.014;2023-03-05T05:16:17;42.15;;;24.30;;
23624;SDS011;11989;47.872;12.014;2023-03-05T05:18:43;48.13;;;25.48;;
23624;SDS011;11989;47.872;12.014;2023-03-05T05:21:10;45.67;;;25.58;;
23624;SDS011;11989;47.872;12.014;2023-03-05T05:23:37;40.78;;;23.85;;
23624;SDS011;11989;47.872;12.014;2023-03-05T05:26:04;44.58;;;25.08;;
23624;SDS011;11989;47.872;12.014;2023-03-05T05:28:30;45.25;;;25.17;;
23624;SDS011;11989;47.872;12.014;2023-03-05T05:30:56;50.65;;;25.45;;
23624;SDS011;11989;47.872;12.014;2023-03-05T05:33:23;46.97;;;25.73;;
23624;SDS011;11989;47.872;12.014;2023-03-05T05:35:49;48.95;;;25.38;;
23624;SDS011;11989;47.872;12.014;2023-03-05T05:38:15;49.20;;;26.17;;
23624;SDS011;11989;47.872;12.014;2023-03-05T05:40:41;49.25;;;27.17;;
23624;SDS011;11989;47.872;12.014;2023-03-05T05:43:07;57.67;;;28.73;;
23624;SDS011;11989;47.872;12.014;2023-03-05T05:45:33;52.13;;;27.27;;
23624;SDS011;11989;47.872;12.014;2023-03-05T05:47:59;54.63;;;26.50;;
23624;SDS011;11989;47.872;12.014;2023-03-05T05:50:25;53.88;;;27.08;;
23624;SDS011;11989;47.872;12.014;2023-03-05T05:52:51;51.90;;;25.90;;
23624;SDS011;11989;47.872;12.014;2023-03-05T05:55:17;52.10;;;25.58;;
23624;SDS011;11989;47.872;12.014;2023-03-05T05:57:43;46.70;;;25.83;;
23624;SDS011;11989;47.872;12.014;2023-03-05T06:00:10;44.13;;;25.17;;
23624;SDS011;11989;47.872;12.014;2023-03-05T06:02:37;45.67;;;24.95;;
23624;SDS011;11989;47.872;12.014;2023-03-05T06:05:04;51.88;;;25.27;;
23624;SDS011;11989;47.872;12.014;2023-03-05T06:07:30;57.20;;;27.92;;
23624;SDS011;11989;47.872;12.014;2023-03-05T06:09:56;48.50;;;26.20;;
23624;SDS011;11989;47.872;12.014;2023-03-05T06:12:22;56.88;;;27.05;;
23624;SDS011;11989;47.872;12.014;2023-03-05T06:14:48;50.80;;;26.95;;
23624;SDS011;11989;47.872;12.014;2023-03-05T06:17:14;50.58;;;27.10;;
23624;SDS011;11989;47.872;12.014;2023-03-05T06:19:40;46.70;;;25.52;;
23624;SDS011;11989;47.872;12.014;2023-03-05T06:22:06;50.85;;;26.08;;
23624;SDS011;11989;47.872;12.014;2023-03-05T06:24:32;50.78;;;25.02;;
23624;SDS011;11989;47.872;12.014;2023-03-05T06:26:58;53.15;;;24.92;;
23624;SDS011;11989;47.872;12.014;2023-03-05T06:29:24;45.15;;;26.60;;
23624;SDS011;11989;47.872;12.014;2023-03-05T06:31:51;42.25;;;23.80;;
23624;SDS011;11989;47.872;12.014;2023-03-05T06:34:17;54.67;;;30.77;;
23624;SDS011;11989;47.872;12.014;2023-03-05T06:36:43;53.75;;;28.73;;
23624;SDS011;11989;47.872;12.014;2023-03-05T06:39:09;52.85;;;30.48;;
23624;SDS011;11989;47.872;12.014;2023-03-05T06:41:35;56.78;;;30.00;;
23624;SDS011;11989;47.872;12.014;2023-03-05T06:44:01;108.18;;;48.28;;
23624;SDS011;11989;47.872;12.014;2023-03-05T06:46:29;124.28;;;56.97;;
23624;SDS011;11989;47.872;12.014;2023-03-05T06:48:56;93.72;;;47.58;;
23624;SDS011;11989;47.872;12.014;2023-03-05T06:51:29;51.55;;;29.10;;
23624;SDS011;11989;47.872;12.014;2023-03-05T06:53:57;49.67;;;25.95;;
23624;SDS011;11989;47.872;12.014;2023-03-05T06:56:24;50.90;;;27.13;;
23624;SDS011;11989;47.872;12.014;2023-03-05T06:58:50;54.55;;;26.95;;
23624;SDS011;11989;47.872;12.014;2023-03-05T07:01:17;49.40;;;26.23;;
23624;SDS011;11989;47.872;12.014;2023-03-05T07:03:43;52.35;;;27.08;;
23624;SDS011;11989;47.872;12.014;2023-03-05T07:06:10;50.47;;;26.33;;
23624;SDS011;11989;47.872;12.014;2023-03-05T07:08:37;49.13;;;26.00;;
23624;SDS011;11989;47.872;12.014;2023-03-05T07:11:07;46.13;;;25.27;;
23624;SDS011;11989;47.872;12.014;2023-03-05T07:13:34;48.33;;;26.20;;
23624;SDS011;11989;47.872;12.014;2023-03-05T07:16:03;43.28;;;24.40;;
23624;SDS011;11989;47.872;12.014;2023-03-05T07:18:29;48.35;;;25.92;;
23624;SDS011;11989;47.872;12.014;2023-03-05T07:20:55;48.65;;;27.00;;
23624;SDS011;11989;47.872;12.014;2023-03-05T07:23:21;48.03;;;26.35;;
23624;SDS011;11989;47.872;12.014;2023-03-05T07:25:47;52.60;;;29.05;;
23624;SDS011;11989;47.872;12.014;2023-03-05T07:28:13;53.72;;;27.65;;
23624;SDS011;11989;47.872;12.014;2023-03-05T07:30:42;48.00;;;26.50;;
23624;SDS011;11989;47.872;12.014;2023-03-05T07:33:11;47.80;;;26.40;;
23624;SDS011;11989;47.872;12.014;2023-03-05T07:35:40;43.75;;;25.85;;
23624;SDS011;11989;47.872;12.014;2023-03-05T07:38:06;44.53;;;24.05;;
23624;SDS011;11989;47.872;12.014;2023-03-05T07:40:33;50.05;;;27.10;;
23624;SDS011;11989;47.872;12.014;2023-03-05T07:42:59;51.75;;;26.33;;
23624;SDS011;11989;47.872;12.014;2023-03-05T07:45:25;45.38;;;24.92;;
23624;SDS011;11989;47.872;12.014;2023-03-05T07:47:51;43.47;;;24.77;;
23624;SDS011;11989;47.872;12.014;2023-03-05T07:50:17;46.83;;;24.85;;
23624;SDS011;11989;47.872;12.014;2023-03-05T07:52:43;44.33;;;24.98;;
23624;SDS011;11989;47.872;12.014;2023-03-05T07:55:09;43.50;;;24.42;;
23624;SDS011;11989;47.872;12.014;2023-03-05T07:57:35;43.33;;;25.67;;
23624;SDS011;11989;47.872;12.014;2023-03-05T08:00:03;52.95;;;31.85;;
23624;SDS011;11989;47.872;12.014;2023-03-05T08:02:29;46.83;;;26.35;;
23624;SDS011;11989;47.872;12.014;2023-03-05T08:04:55;49.03;;;25.92;;
23624;SDS011;11989;47.872;12.014;2023-03-05T08:07:21;45.90;;;24.67;;
23624;SDS011;11989;47.872;12.014;2023-03-05T08:09:47;48.03;;;25.67;;
23624;SDS011;11989;47.872;12.014;2023-03-05T08:12:13;42.45;;;24.90;;
23624;SDS011;11989;47.872;12.014;2023-03-05T08:14:40;44.67;;;24.80;;
23624;SDS011;11989;47.872;12.014;2023-03-05T08:17:06;45.45;;;24.05;;
23624;SDS011;11989;47.872;12.014;2023-03-05T08:19:33;44.08;;;23.45;;
23624;SDS011;11989;47.872;12.014;2023-03-05T08:21:59;55.55;;;31.80;;
23624;SDS011;11989;47.872;12.014;2023-03-05T08:24:25;64.50;;;35.85;;
23624;SDS011;11989;47.872;12.014;2023-03-05T08:26:53;50.15;;;28.55;;
23624;SDS011;11989;47.872;12.014;2023-03-05T08:29:20;45.72;;;26.13;;
23624;SDS011;11989;47.872;12.014;2023-03-05T08:31:46;43.00;;;22.80;;
23624;SDS011;11989;47.872;12.014;2023-03-05T08:34:12;39.83;;;22.35;;
23624;SDS011;11989;47.872;12.014;2023-03-05T08:36:38;44.92;;;22.40;;
23624;SDS011;11989;47.872;12.014;2023-03-05T08:39:04;39.33;;;20.92;;
23624;SDS011;11989;47.872;12.014;2023-03-05T08:41:34;38.83;;;21.77;;
23624;SDS011;11989;47.872;12.014;2023-03-05T08:44:00;40.47;;;21.58;;
23624;SDS011;11989;47.872;12.014;2023-03-05T08:46:26;37.67;;;21.30;;
23624;SDS011;11989;47.872;12.014;2023-03-05T08:48:52;42.05;;;21.45;;
23624;SDS011;11989;47.872;12.014;2023-03-05T08:51:19;41.38;;;22.92;;
23624;SDS011;11989;47.872;12.014;2023-03-05T08:53:46;37.42;;;20.85;;
23624;SDS011;11989;47.872;12.014;2023-03-05T08:56:12;31.80;;;17.52;;
23624;SDS011;11989;47.872;12.014;2023-03-05T08:58:39;30.38;;;16.30;;
23624;SDS011;11989;47.872;12.014;2023-03-05T09:01:05;31.52;;;15.68;;
23624;SDS011;11989;47.872;12.014;2023-03-05T09:03:31;33.13;;;17.13;;
23624;SDS011;11989;47.872;12.014;2023-03-05T09:06:01;33.50;;;17.08;;
23624;SDS011;11989;47.872;12.014;2023-03-05T09:08:28;29.73;;;15.95;;
23624;SDS011;11989;47.872;12.014;2023-03-05T09:10:54;30.13;;;15.10;;
23624;SDS011;11989;47.872;12.014;2023-03-05T09:13:20;28.60;;;15.55;;
23624;SDS011;11989;47.872;12.014;2023-03-05T09:15:52;29.63;;;15.57;;
23624;SDS011;11989;47.872;12.014;2023-03-05T09:18:18;32.33;;;16.92;;
23624;SDS011;11989;47.872;12.014;2023-03-05T09:20:45;29.30;;;16.75;;
23624;SDS011;11989;47.872;12.014;2023-03-05T09:23:11;26.95;;;15.85;;
23624;SDS011;11989;47.872;12.014;2023-03-05T09:25:38;32.08;;;17.15;;
23624;SDS011;11989;47.872;12.014;2023-03-05T09:28:05;30.67;;;16.90;;
23624;SDS011;11989;47.872;12.014;2023-03-05T09:30:31;32.13;;;16.73;;
23624;SDS011;11989;47.872;12.014;2023-03-05T09:32:59;31.13;;;16.30;;
23624;SDS011;11989;47.872;12.014;2023-03-05T09:35:25;29.55;;;16.00;;
23624;SDS011;11989;47.872;12.014;2023-03-05T09:37:51;34.88;;;17.88;;
23624;SDS011;11989;47.872;12.014;2023-03-05T09:40:18;31.50;;;17.52;;
23624;SDS011;11989;47.872;12.014;2023-03-05T09:43:01;31.77;;;17.80;;
23624;SDS011;11989;47.872;12.014;2023-03-05T09:45:32;29.20;;;16.13;;
23624;SDS011;11989;47.872;12.014;2023-03-05T09:50:39;29.27;;;16.77;;
23624;SDS011;11989;47.872;12.014;2023-03-05T09:55:38;28.15;;;15.90;;
23624;SDS011;11989;47.872;12.014;2023-03-05T10:00:46;30.42;;;17.17;;
23624;SDS011;11989;47.872;12.014;2023-03-05T10:05:57;26.92;;;15.20;;
23624;SDS011;11989;47.872;12.014;2023-03-05T10:08:26;27.75;;;15.35;;
23624;SDS011;11989;47.872;12.014;2023-03-05T10:10:55;30.40;;;16.23;;
23624;SDS011;11989;47.872;12.014;2023-03-05T10:13:28;29.15;;;16.33;;
23624;SDS011;11989;47.872;12.014;2023-03-05T10:18:40;25.65;;;14.65;;
23624;SDS011;11989;47.872;12.014;2023-03-05T10:21:12;26.42;;;14.10;;
23624;SDS011;11989;47.872;12.014;2023-03-05T10:23:44;24.67;;;14.38;;
23624;SDS011;11989;47.872;12.014;2023-03-05T10:26:24;28.80;;;15.48;;
23624;SDS011;11989;47.872;12.014;2023-03-05T10:31:40;28.90;;;15.50;;
23624;SDS011;11989;47.872;12.014;2023-03-05T10:37:18;24.38;;;14.48;;
23624;SDS011;11989;47.872;12.014;2023-03-05T10:46:59;26.10;;;15.27;;
23624;SDS011;11989;47.872;12.014;2023-03-05T10:49:27;26.25;;;13.40;;
23624;SDS011;11989;47.872;12.014;2023-03-05T10:52:01;26.02;;;14.00;;
23624;SDS011;11989;47.872;12.014;2023-03-05T10:54:29;25.40;;;15.00;;
23624;SDS011;11989;47.872;12.014;2023-03-05T10:59:38;23.92;;;14.77;;
23624;SDS011;11989;47.872;12.014;2023-03-05T11:02:06;28.00;;;15.48;;
23624;SDS011;11989;47.872;12.014;2023-03-05T11:04:35;27.27;;;16.33;;
23624;SDS011;11989;47.872;12.014;2023-03-05T11:10:00;33.30;;;19.00;;
23624;SDS011;11989;47.872;12.014;2023-03-05T11:12:27;23.70;;;14.38;;
23624;SDS011;11989;47.872;12.014;2023-03-05T11:17:33;23.60;;;13.65;;
23624;SDS011;11989;47.872;12.014;2023-03-05T11:20:28;25.20;;;14.50;;
23624;SDS011;11989;47.872;12.014;2023-03-05T11:25:33;24.60;;;13.55;;
23624;SDS011;11989;47.872;12.014;2023-03-05T11:28:00;21.10;;;12.63;;
23624;SDS011;11989;47.872;12.014;2023-03-05T11:30:28;22.20;;;13.25;;
23624;SDS011;11989;47.872;12.014;2023-03-05T11:33:08;20.02;;;12.50;;
23624;SDS011;11989;47.872;12.014;2023-03-05T11:35:35;23.17;;;13.18;;
23624;SDS011;11989;47.872;12.014;2023-03-05T11:38:03;20.15;;;12.35;;
23624;SDS011;11989;47.872;12.014;2023-03-05T11:40:30;21.65;;;12.75;;
23624;SDS011;11989;47.872;12.014;2023-03-05T11:42:59;19.85;;;11.55;;
23624;SDS011;11989;47.872;12.014;2023-03-05T11:45:26;18.77;;;12.13;;
23624;SDS011;11989;47.872;12.014;2023-03-05T11:47:54;19.92;;;12.38;;
23624;SDS011;11989;47.872;12.014;2023-03-05T11:50:22;25.67;;;13.65;;
23624;SDS011;11989;47.872;12.014;2023-03-05T11:52:50;24.58;;;12.90;;
23624;SDS011;11989;47.872;12.014;2023-03-05T11:55:20;21.23;;;13.23;;
23624;SDS011;11989;47.872;12.014;2023-03-05T12:00:15;22.15;;;12.82;;
23624;SDS011;11989;47.872;12.014;2023-03-05T12:02:42;22.85;;;13.68;;
23624;SDS011;11989;47.872;12.014;2023-03-05T12:05:12;21.17;;;12.98;;
23624;SDS011;11989;47.872;12.014;2023-03-05T12:07:40;20.55;;;12.32;;
23624;SDS011;11989;47.872;12.014;2023-03-05T12:10:13;20.35;;;12.05;;
23624;SDS011;11989;47.872;12.014;2023-03-05T12:12:47;20.20;;;12.60;;
23624;SDS011;11989;47.872;12.014;2023-03-05T12:23:42;21.33;;;11.88;;
23624;SDS011;11989;47.872;12.014;2023-03-05T12:26:09;21.65;;;12.43;;
23624;SDS011;11989;47.872;12.014;2023-03-05T12:31:04;19.80;;;12.25;;
23624;SDS011;11989;47.872;12.014;2023-03-05T12:38:40;20.25;;;12.95;;
23624;SDS011;11989;47.872;12.014;2023-03-05T12:49:00;20.52;;;12.45;;
23624;SDS011;11989;47.872;12.014;2023-03-05T12:51:52;20.90;;;13.02;;
23624;SDS011;11989;47.872;12.014;2023-03-05T12:54:21;20.65;;;12.98;;
23624;SDS011;11989;47.872;12.014;2023-03-05T12:56:47;23.05;;;13.50;;
23624;SDS011;11989;47.872;12.014;2023-03-05T12:59:14;22.00;;;13.25;;
23624;SDS011;11989;47.872;12.014;2023-03-05T13:01:43;22.55;;;13.60;;
23624;SDS011;11989;47.872;12.014;2023-03-05T13:04:14;21.63;;;12.70;;
23624;SDS011;11989;47.872;12.014;2023-03-05T13:06:43;19.92;;;12.35;;
23624;SDS011;11989;47.872;12.014;2023-03-05T13:11:38;22.35;;;12.43;;
23624;SDS011;11989;47.872;12.014;2023-03-05T13:14:15;21.20;;;12.30;;
23624;SDS011;11989;47.872;12.014;2023-03-05T13:16:46;22.40;;;14.10;;
23624;SDS011;11989;47.872;12.014;2023-03-05T13:19:14;19.10;;;11.45;;
23624;SDS011;11989;47.872;12.014;2023-03-05T13:21:40;23.48;;;12.25;;
23624;SDS011;11989;47.872;12.014;2023-03-05T13:24:14;24.42;;;13.45;;
23624;SDS011;11989;47.872;12.014;2023-03-05T13:26:40;20.60;;;12.40;;
23624;SDS011;11989;47.872;12.014;2023-03-05T13:29:11;19.48;;;10.93;;
23624;SDS011;11989;47.872;12.014;2023-03-05T13:34:13;19.75;;;11.10;;
23624;SDS011;11989;47.872;12.014;2023-03-05T13:36:43;19.83;;;12.25;;
23624;SDS011;11989;47.872;12.014;2023-03-05T13:39:16;20.92;;;12.35;;
23624;SDS011;11989;47.872;12.014;2023-03-05T13:41:42;20.90;;;12.25;;
23624;SDS011;11989;47.872;12.014;2023-03-05T13:44:20;18.50;;;11.43;;
23624;SDS011;11989;47.872;12.014;2023-03-05T13:46:46;22.88;;;13.75;;
23624;SDS011;11989;47.872;12.014;2023-03-05T13:49:16;22.38;;;12.63;;
23624;SDS011;11989;47.872;12.014;2023-03-05T13:51:44;21.63;;;12.07;;
23624;SDS011;11989;47.872;12.014;2023-03-05T13:54:14;19.38;;;11.77;;
23624;SDS011;11989;47.872;12.014;2023-03-05T13:56:48;18.63;;;10.65;;
23624;SDS011;11989;47.872;12.014;2023-03-05T13:59:18;24.25;;;11.02;;
23624;SDS011;11989;47.872;12.014;2023-03-05T14:01:45;19.75;;;11.43;;
23624;SDS011;11989;47.872;12.014;2023-03-05T14:06:48;17.58;;;10.45;;
23624;SDS011;11989;47.872;12.014;2023-03-05T14:09:24;17.65;;;10.88;;
23624;SDS011;11989;47.872;12.014;2023-03-05T14:12:37;18.98;;;11.65;;
23624;SDS011;11989;47.872;12.014;2023-03-05T14:14:37;22.88;;;11.73;;
23624;SDS011;11989;47.872;12.014;2023-03-05T14:19:48;24.23;;;12.93;;
23624;SDS011;11989;47.872;12.014;2023-03-05T14:22:27;23.63;;;13.50;;
23624;SDS011;11989;47.872;12.014;2023-03-05T14:24:54;23.50;;;14.45;;
23624;SDS011;11989;47.872;12.014;2023-03-05T14:27:20;29.40;;;18.98;;
23624;SDS011;11989;47.872;12.014;2023-03-05T14:29:46;22.40;;;13.77;;
23624;SDS011;11989;47.872;12.014;2023-03-05T14:35:15;24.30;;;13.60;;
23624;SDS011;11989;47.872;12.014;2023-03-05T14:37:44;21.70;;;12.55;;
23624;SDS011;11989;47.872;12.014;2023-03-05T14:45:19;21.00;;;13.07;;
23624;SDS011;11989;47.872;12.014;2023-03-05T14:47:45;21.13;;;12.82;;
23624;SDS011;11989;47.872;12.014;2023-03-05T14:50:15;18.65;;;12.25;;
23624;SDS011;11989;47.872;12.014;2023-03-05T14:52:42;19.65;;;11.25;;
23624;SDS011;11989;47.872;12.014;2023-03-05T14:55:15;20.92;;;12.40;;
23624;SDS011;11989;47.872;12.014;2023-03-05T14:57:41;19.95;;;11.00;;
23624;SDS011;11989;47.872;12.014;2023-03-05T15:00:21;18.88;;;11.25;;
23624;SDS011;11989;47.872;12.014;2023-03-05T15:02:47;17.95;;;11.18;;
23624;SDS011;11989;47.872;12.014;2023-03-05T15:05:14;19.05;;;11.95;;
23624;SDS011;11989;47.872;12.014;2023-03-05T15:07:41;19.50;;;11.40;;
23624;SDS011;11989;47.872;12.014;2023-03-05T15:10:08;22.38;;;10.52;;
23624;SDS011;11989;47.872;12.014;2023-03-05T15:12:34;20.65;;;10.57;;
23624;SDS011;11989;47.872;12.014;2023-03-05T15:15:00;17.10;;;10.57;;
23624;SDS011;11989;47.872;12.014;2023-03-05T15:17:35;20.10;;;10.98;;
23624;SDS011;11989;47.872;12.014;2023-03-05T15:20:02;20.95;;;11.25;;
23624;SDS011;11989;47.872;12.014;2023-03-05T15:22:33;17.00;;;9.60;;
23624;SDS011;11989;47.872;12.014;2023-03-05T15:25:00;20.65;;;11.13;;
23624;SDS011;11989;47.872;12.014;2023-03-05T15:27:26;17.90;;;10.90;;
23624;SDS011;11989;47.872;12.014;2023-03-05T15:29:52;20.63;;;11.70;;
23624;SDS011;11989;47.872;12.014;2023-03-05T15:32:18;21.92;;;11.38;;
23624;SDS011;11989;47.872;12.014;2023-03-05T15:34:44;18.27;;;9.88;;